createdAt,value
2018-07-28T00:03:15.625Z,11.20
2018-07-28T00:08:44.955Z,13.30
2018-07-28T00:14:14.200Z,11.78
2018-07-28T00:19:43.407Z,12.27
2018-07-28T00:25:12.912Z,14.07
2018-07-28T00:30:45.923Z,13.13
2018-07-28T00:36:15.192Z,11.87
2018-07-28T00:41:48.011Z,12.17
2018-07-28T00:47:17.322Z,12.65
2018-07-28T00:52:46.664Z,11.80
2018-07-28T00:58:15.895Z,17.90
2018-07-28T01:03:45.124Z,14.40
2018-07-28T01:09:14.375Z,13.65
2018-07-28T01:14:43.713Z,21.00
2018-07-28T01:20:12.929Z,14.67
2018-07-28T01:25:42.269Z,11.50
2018-07-28T01:31:11.521Z,10.68
2018-07-28T01:36:40.821Z,12.70
2018-07-28T01:42:12.124Z,12.60
2018-07-28T01:47:41.363Z,11.73
2018-07-28T01:53:10.596Z,13.08
2018-07-28T01:58:39.864Z,11.23
2018-07-28T02:04:09.192Z,10.75
2018-07-28T02:09:38.422Z,11.37
2018-07-28T02:15:08.605Z,16.65
2018-07-28T02:20:37.849Z,13.43
2018-07-28T02:26:07.172Z,12.60
2018-07-28T02:31:36.489Z,11.60
2018-07-28T02:37:06.512Z,11.65
2018-07-28T02:42:36.511Z,21.00
2018-07-28T02:48:05.988Z,14.23
2018-07-28T02:53:35.256Z,10.57
2018-07-28T02:59:05.547Z,12.75
2018-07-28T03:04:34.759Z,14.87
2018-07-28T03:10:05.489Z,11.17
2018-07-28T03:15:35.660Z,11.60
2018-07-28T03:21:06.000Z,23.45
2018-07-28T03:26:35.195Z,14.83
2018-07-28T03:32:04.487Z,12.50
2018-07-28T03:37:35.168Z,11.90
2018-07-28T03:43:04.507Z,11.30
2018-07-28T03:48:33.706Z,10.60
2018-07-28T03:54:03.008Z,12.75
2018-07-28T03:59:32.265Z,14.77
2018-07-28T04:05:01.541Z,11.22
2018-07-28T04:10:30.785Z,9.53
2018-07-28T04:16:00.035Z,10.05
2018-07-28T04:21:29.240Z,19.57
2018-07-28T04:26:58.483Z,10.28
2018-07-28T04:32:27.725Z,9.60
2018-07-28T04:37:56.980Z,9.70
2018-07-28T04:43:26.196Z,10.65
2018-07-28T04:48:55.534Z,15.40
2018-07-28T04:54:24.806Z,9.30
2018-07-28T04:59:54.858Z,10.93
2018-07-28T05:05:25.175Z,8.73
2018-07-28T05:10:54.445Z,11.35
2018-07-28T05:16:24.749Z,13.75
2018-07-28T05:21:54.108Z,10.60
2018-07-28T05:27:23.444Z,9.60
2018-07-28T05:32:53.338Z,7.90
2018-07-28T05:38:22.613Z,7.10
2018-07-28T05:43:52.598Z,9.95
2018-07-28T05:49:22.030Z,7.93
2018-07-28T05:54:51.374Z,9.25
2018-07-28T06:00:20.755Z,9.60
2018-07-28T06:05:51.164Z,9.25
2018-07-28T06:11:25.989Z,9.63
2018-07-28T06:17:01.532Z,8.58
2018-07-28T06:22:30.798Z,11.40
2018-07-28T06:28:01.119Z,8.60
2018-07-28T06:33:30.426Z,10.50
2018-07-28T06:38:59.722Z,8.68
2018-07-28T06:44:28.996Z,8.83
2018-07-28T06:49:58.348Z,6.20
2018-07-28T06:55:27.604Z,5.93
2018-07-28T07:00:59.051Z,6.90
2018-07-28T07:06:28.353Z,6.12
2018-07-28T07:12:11.036Z,6.65
2018-07-28T07:17:40.495Z,9.00
2018-07-28T07:23:12.664Z,5.85
2018-07-28T07:28:43.060Z,7.30
2018-07-28T07:34:12.619Z,5.10
2018-07-28T07:39:41.835Z,5.90
2018-07-28T07:45:11.069Z,9.60
2018-07-28T07:50:40.366Z,6.73
2018-07-28T07:56:09.569Z,9.55
2018-07-28T08:01:39.978Z,6.50
2018-07-28T08:07:09.146Z,5.65
2018-07-28T08:12:38.454Z,6.45
2018-07-28T08:18:07.746Z,7.70
2018-07-28T08:23:37.621Z,5.47
2018-07-28T08:29:07.565Z,5.67
2018-07-28T08:34:36.899Z,7.27
2018-07-28T08:40:07.267Z,8.60
2018-07-28T08:45:36.882Z,6.07
2018-07-28T08:51:06.118Z,6.37
2018-07-28T08:56:35.271Z,7.00
2018-07-28T09:02:04.605Z,8.03
2018-07-28T09:07:33.886Z,11.80
2018-07-28T09:13:03.247Z,5.00
2018-07-28T09:18:33.954Z,8.50
2018-07-28T09:24:03.277Z,6.25
2018-07-28T09:29:32.518Z,6.97
2018-07-28T09:35:02.158Z,7.23
2018-07-28T09:40:31.481Z,7.80
2018-07-28T09:46:00.717Z,8.83
2018-07-28T09:51:30.198Z,10.67
2018-07-28T09:56:59.696Z,6.93
2018-07-28T10:02:28.932Z,5.73
2018-07-28T10:07:58.285Z,5.10
2018-07-28T10:13:27.626Z,7.07
2018-07-28T10:18:56.901Z,6.10
2018-07-28T10:24:26.160Z,5.10
2018-07-28T10:29:55.818Z,7.20
2018-07-28T10:35:25.151Z,5.00
2018-07-28T10:40:54.817Z,4.27
2018-07-28T10:46:24.109Z,5.20
2018-07-28T10:51:53.853Z,5.23
2018-07-28T10:57:24.681Z,6.87
2018-07-28T11:02:53.830Z,3.97
2018-07-28T11:08:23.123Z,6.20
2018-07-28T11:13:52.642Z,5.07
2018-07-28T11:19:21.960Z,4.87
2018-07-28T11:24:51.438Z,6.03
2018-07-28T11:30:20.823Z,4.70
2018-07-28T11:36:07.079Z,5.13
2018-07-28T11:43:57.924Z,5.50
2018-07-28T11:49:27.211Z,4.80
2018-07-28T11:54:56.422Z,8.33
2018-07-28T12:00:25.723Z,3.70
2018-07-28T12:05:55.235Z,5.70
2018-07-28T12:11:24.506Z,6.17
2018-07-28T12:16:53.914Z,7.80
2018-07-28T12:22:23.359Z,5.43
2018-07-28T12:27:52.775Z,6.30
2018-07-28T12:33:22.515Z,4.20
2018-07-28T12:38:51.919Z,6.20
2018-07-28T12:44:21.335Z,9.40
2018-07-28T12:49:50.588Z,7.50
2018-07-28T12:55:20.193Z,5.20
2018-07-28T13:00:49.469Z,4.80
2018-07-28T13:06:18.870Z,5.53
2018-07-28T13:11:48.246Z,6.33
2018-07-28T13:17:17.507Z,6.78
2018-07-28T13:22:47.836Z,7.80
2018-07-28T13:28:17.147Z,6.97
2018-07-28T13:33:46.427Z,6.70
2018-07-28T13:39:15.679Z,5.12
2018-07-28T13:44:45.677Z,5.40
2018-07-28T13:50:14.885Z,10.00
2018-07-28T13:55:44.215Z,6.03
2018-07-28T14:01:13.472Z,4.00
2018-07-28T14:06:42.689Z,4.20
2018-07-28T14:12:12.029Z,4.43
2018-07-28T14:17:41.884Z,5.20
2018-07-28T14:23:11.071Z,7.20
2018-07-28T14:28:40.413Z,5.53
2018-07-28T14:34:09.700Z,4.60
2018-07-28T14:39:39.006Z,4.37
2018-07-28T14:45:10.016Z,4.30
2018-07-28T14:50:39.263Z,4.00
2018-07-28T14:56:08.594Z,5.60
2018-07-28T15:01:37.976Z,5.30
2018-07-28T15:07:07.566Z,5.80
2018-07-28T15:12:36.796Z,3.40
2018-07-28T15:18:06.103Z,3.60
2018-07-28T15:23:35.318Z,3.00
2018-07-28T15:29:04.646Z,4.33
2018-07-28T15:34:33.873Z,5.60
2018-07-28T15:40:03.136Z,4.93
2018-07-28T15:45:32.543Z,4.57
2018-07-28T15:51:01.870Z,3.83
2018-07-28T15:56:31.091Z,6.60
2018-07-28T16:02:00.490Z,4.17
2018-07-28T16:07:29.764Z,8.73
2018-07-28T16:12:59.070Z,5.43
2018-07-28T16:18:28.390Z,4.93
2018-07-28T16:23:57.636Z,4.90
2018-07-28T16:29:26.838Z,3.63
2018-07-28T16:34:56.056Z,7.53
2018-07-28T16:40:25.376Z,9.07
2018-07-28T16:45:55.359Z,6.33
2018-07-28T16:51:24.636Z,3.90
2018-07-28T16:56:54.065Z,4.27
2018-07-28T17:02:23.681Z,8.37
2018-07-28T17:07:52.936Z,5.40
2018-07-28T17:13:23.392Z,5.10
2018-07-28T17:18:52.915Z,5.40
2018-07-28T17:24:22.748Z,7.10
2018-07-28T17:29:53.988Z,4.03
2018-07-28T17:35:34.203Z,7.03
2018-07-28T17:41:05.895Z,5.50
2018-07-28T17:46:35.118Z,8.20
2018-07-28T17:52:05.529Z,5.23
2018-07-28T17:57:35.502Z,7.70
2018-07-28T18:03:04.717Z,6.95
2018-07-28T18:08:34.102Z,7.30
2018-07-28T18:14:04.879Z,9.10
2018-07-28T18:19:34.973Z,6.47
2018-07-28T18:25:04.397Z,7.65
2018-07-28T18:30:33.590Z,5.47
2018-07-28T18:36:02.916Z,7.60
2018-07-28T18:41:32.247Z,7.45
2018-07-28T18:47:02.077Z,6.55
2018-07-28T18:52:31.315Z,6.70
2018-07-28T18:58:00.673Z,8.63
2018-07-28T19:03:29.972Z,7.03
2018-07-28T19:09:04.544Z,8.53
2018-07-28T19:14:34.411Z,7.80
2018-07-28T19:20:03.702Z,7.63
2018-07-28T19:25:32.901Z,7.87
2018-07-28T19:31:02.258Z,9.78
2018-07-28T19:36:36.536Z,15.80
2018-07-28T19:42:11.456Z,11.63
2018-07-28T19:47:40.744Z,7.60
2018-07-28T19:53:10.041Z,8.53
2018-07-28T19:58:39.869Z,9.23
2018-07-28T20:04:09.340Z,7.53
2018-07-28T20:09:38.707Z,12.10
2018-07-28T20:15:07.887Z,9.03
2018-07-28T20:20:37.215Z,13.93
2018-07-28T20:26:06.692Z,9.30
2018-07-28T20:31:35.989Z,8.00
2018-07-28T20:37:05.255Z,9.13
2018-07-28T20:42:34.525Z,11.10
2018-07-28T20:48:03.895Z,8.00
2018-07-28T20:53:33.266Z,10.27
2018-07-28T20:59:02.481Z,12.00
2018-07-28T21:04:31.733Z,9.23
2018-07-28T21:10:01.232Z,7.90
2018-07-28T21:15:30.493Z,8.97
2018-07-28T21:20:59.761Z,9.95
2018-07-28T21:26:29.039Z,10.00
2018-07-28T21:31:58.599Z,8.90
2018-07-28T21:37:28.103Z,9.70
2018-07-28T21:42:57.411Z,9.35
2018-07-28T21:48:26.717Z,8.13
2018-07-28T21:53:55.957Z,8.90
2018-07-28T21:59:25.291Z,11.67
2018-07-28T22:04:54.501Z,7.75
2018-07-28T22:10:23.896Z,9.80
2018-07-28T22:15:53.307Z,7.87
2018-07-28T22:21:22.695Z,8.35
2018-07-28T22:26:51.983Z,7.35
2018-07-28T22:32:21.434Z,8.23
2018-07-28T22:37:50.773Z,8.67
2018-07-28T22:43:20.173Z,7.23
2018-07-28T22:48:49.512Z,7.58
2018-07-28T22:54:18.973Z,6.43
2018-07-28T22:59:48.249Z,8.50
2018-07-28T23:05:17.505Z,7.87
2018-07-28T23:10:46.732Z,5.58
2018-07-28T23:16:15.966Z,13.18
2018-07-28T23:21:45.340Z,7.33
2018-07-28T23:27:14.541Z,7.23
2018-07-28T23:32:43.928Z,9.93
2018-07-28T23:38:13.135Z,5.10
2018-07-28T23:43:42.318Z,11.00
2018-07-28T23:49:11.528Z,6.70
2018-07-28T23:54:40.832Z,8.05
